Time;durP1;ratioP1;P1;durP2;ratioP2;P2;SDS_P1;SDS_P2;PMS_P1;PMS_P2;Temp;Humidity;BMP_temperature;BMP_pressure;BME280_temperature;BME280_humidity;BME280_pressure;Samples;Min_cycle;Max_cycle;Signal;HPM_P1;HPM_P2
2022/01/13 00:01:54;;;;;;;29.50;18.77;;;;;;;0.88;84.21;103051.69;5031361;28;20033;-21
2022/01/13 00:04:19;;;;;;;33.60;20.08;;;;;;;0.86;84.49;103050.69;5025967;28;20076;-22
2022/01/13 00:06:45;;;;;;;30.48;19.13;;;;;;;0.80;84.52;103042.44;5030497;28;20423;-22
2022/01/13 00:09:10;;;;;;;27.33;18.92;;;;;;;0.82;84.34;103047.75;5030081;28;20448;-19
2022/01/13 00:11:36;;;;;;;31.20;19.20;;;;;;;0.82;84.22;103055.53;5028328;28;20028;-20
2022/01/13 00:25:16;;;;;;;29.83;19.35;;;;;;;0.71;84.05;103032.34;5005269;28;20041;-22
2022/01/13 00:27:48;;;;;;;29.58;19.73;;;;;;;0.70;84.45;103025.31;5029400;28;20036;-21
2022/01/13 00:30:17;;;;;;;30.17;17.45;;;;;;;0.67;84.25;103032.00;5029070;28;20527;-21
2022/01/13 00:32:45;;;;;;;28.55;18.30;;;;;;;0.66;84.01;103038.88;5024858;28;20037;-22
2022/01/13 00:35:11;;;;;;;31.15;20.08;;;;;;;0.62;84.57;103035.19;5028371;28;20163;-22
2022/01/13 00:37:37;;;;;;;30.50;19.00;;;;;;;0.62;84.61;103031.69;5018090;28;20072;-21
2022/01/13 00:40:05;;;;;;;29.88;20.30;;;;;;;0.61;84.10;103029.88;5025125;28;20021;-21
2022/01/13 00:42:30;;;;;;;28.30;18.42;;;;;;;0.57;84.42;103033.06;5027297;28;20033;-22
2022/01/13 00:44:55;;;;;;;30.52;19.02;;;;;;;0.55;84.74;103038.13;5027749;28;20503;-22
2022/01/13 00:47:21;;;;;;;31.92;20.65;;;;;;;0.55;84.07;103048.53;5029138;28;20028;-21
2022/01/13 00:49:46;;;;;;;30.13;19.92;;;;;;;0.55;84.46;103058.91;5024483;28;20041;-22
2022/01/13 00:52:11;;;;;;;31.58;19.05;;;;;;;0.52;84.32;103061.28;5029367;28;20067;-22
2022/01/13 00:54:37;;;;;;;30.52;18.95;;;;;;;0.51;84.37;103069.88;5023555;28;20121;-22
2022/01/13 00:57:02;;;;;;;31.75;19.35;;;;;;;0.50;84.36;103060.31;5027125;28;20325;-22
2022/01/13 00:59:28;;;;;;;31.85;20.02;;;;;;;0.47;84.30;103060.06;5025273;28;20435;-21
2022/01/13 01:01:54;;;;;;;29.50;18.80;;;;;;;0.46;84.72;103060.84;5027831;28;20034;-21
2022/01/13 01:04:20;;;;;;;30.52;18.83;;;;;;;0.45;84.66;103056.44;5026742;28;20037;-22
2022/01/13 01:06:46;;;;;;;28.83;18.77;;;;;;;0.42;84.30;103056.22;5024799;28;20036;-22
2022/01/13 01:09:17;;;;;;;31.88;19.20;;;;;;;0.42;84.33;103048.44;5026996;28;20572;-22
2022/01/13 01:11:45;;;;;;;;;;;;;;;0.42;84.42;103054.53;5028017;28;20551;-19
2022/01/13 01:14:12;;;;;;;31.52;18.08;;;;;;;0.35;84.76;103044.50;5023522;28;20369;-22
2022/01/13 01:16:41;;;;;;;29.70;18.95;;;;;;;0.38;84.57;103058.63;5028409;28;20037;-22
2022/01/13 01:19:08;;;;;;;30.85;18.27;;;;;;;0.39;84.75;103051.72;5040491;28;20031;-22
2022/01/13 01:24:27;;;;;;;33.63;19.70;;;;;;;0.36;84.69;103043.72;5027875;28;20021;-22
2022/01/13 01:26:56;;;;;;;29.17;18.00;;;;;;;0.34;84.50;103040.13;5026979;28;20036;-20
2022/01/13 01:31:51;;;;;;;25.98;16.60;;;;;;;0.33;84.95;103038.31;5025683;28;20025;-21
2022/01/13 01:34:52;;;;;;;28.00;17.13;;;;;;;0.30;85.05;103028.59;5026997;28;20029;-22
2022/01/13 01:37:19;;;;;;;29.42;16.73;;;;;;;0.32;85.04;103029.63;5026345;28;20037;-21
2022/01/13 01:39:47;;;;;;;29.00;17.45;;;;;;;0.30;84.75;103023.41;5025384;28;20488;-22
2022/01/13 01:42:12;;;;;;;28.88;17.73;;;;;;;0.31;84.72;103020.03;5026860;28;20502;-22
2022/01/13 01:44:42;;;;;;;31.05;17.73;;;;;;;0.29;85.09;103021.59;5026510;28;20132;-22
2022/01/13 01:47:10;;;;;;;29.65;17.48;;;;;;;0.30;84.83;103023.41;5025769;28;20029;-22
2022/01/13 01:49:41;;;;;;;30.38;17.95;;;;;;;0.28;84.91;103017.22;5026980;28;20417;-22
2022/01/13 01:52:08;;;;;;;31.27;18.05;;;;;;;0.28;85.46;103024.09;5027638;28;20029;-22
2022/01/13 01:54:34;;;;;;;35.25;18.52;;;;;;;0.28;85.35;103018.91;5027708;28;20110;-22
2022/01/13 01:56:59;;;;;;;30.83;17.63;;;;;;;0.29;85.43;103007.72;5026643;28;20108;-22
2022/01/13 01:59:29;;;;;;;30.92;16.30;;;;;;;0.29;84.98;103012.91;5027977;28;20038;-22
2022/01/13 02:01:56;;;;;;;30.05;17.77;;;;;;;0.28;85.44;103017.22;5023894;28;20061;-22
2022/01/13 02:04:24;;;;;;;31.30;18.40;;;;;;;0.30;85.82;103019.94;5026989;28;20130;-22
2022/01/13 02:06:49;;;;;;;27.98;17.25;;;;;;;0.26;85.62;103000.63;5026995;28;20503;-19
2022/01/13 02:09:17;;;;;;;27.90;17.20;;;;;;;0.31;85.41;102999.28;5025031;28;20037;-22
2022/01/13 02:11:45;;;;;;;28.15;16.42;;;;;;;0.32;85.41;103006.25;5025927;28;20025;-22
2022/01/13 02:16:50;;;;;;;28.60;16.08;;;;;;;0.34;85.36;103015.03;5021072;28;20116;-22
2022/01/13 02:19:17;;;;;;;25.60;16.05;;;;;;;0.36;85.68;103005.69;5025616;28;20455;-22
2022/01/13 02:21:42;;;;;;;27.50;15.38;;;;;;;0.38;85.26;103017.09;5026463;28;21284;-19
2022/01/13 02:24:07;;;;;;;26.50;15.75;;;;;;;0.36;85.35;103003.09;5023101;28;20116;-22
2022/01/13 02:26:33;;;;;;;26.95;16.55;;;;;;;0.40;85.03;103003.31;5027322;28;20021;-22
2022/01/13 02:28:59;;;;;;;30.15;17.60;;;;;;;0.40;85.81;103003.31;5025090;28;20033;-22
2022/01/13 02:31:25;;;;;;;28.25;15.68;;;;;;;0.43;85.49;103011.31;5024264;28;20557;-22
2022/01/13 02:33:50;;;;;;;34.05;17.42;;;;;;;0.45;85.49;103001.91;5038189;28;20034;-22
2022/01/13 02:36:19;;;;;;;30.88;18.23;;;;;;;0.46;85.88;102988.13;5026114;28;20025;-22
2022/01/13 02:38:53;;;;;;;35.17;18.30;;;;;;;0.45;86.01;102984.66;5025262;28;20029;-22
2022/01/13 02:41:18;;;;;;;29.00;15.80;;;;;;;0.46;85.97;102985.53;5021539;28;20025;-20
2022/01/13 02:43:45;;;;;;;28.92;16.98;;;;;;;0.51;85.82;102986.78;5025345;28;20109;-22
2022/01/13 02:46:55;;;;;;;31.88;18.65;;;;;;;0.51;85.53;102981.59;5025843;28;20021;-21
2022/01/13 02:49:22;;;;;;;31.90;17.02;;;;;;;0.53;85.52;102984.28;5012024;28;20040;-20
2022/01/13 02:51:50;;;;;;;29.48;16.83;;;;;;;0.54;86.12;102973.09;5023074;28;20391;-22
2022/01/13 02:54:16;;;;;;;32.85;17.85;;;;;;;0.55;85.38;102975.81;5023225;28;20480;-22
2022/01/13 02:56:43;;;;;;;31.75;17.70;;;;;;;0.54;85.35;102966.22;5023832;28;20083;-20
2022/01/13 02:59:08;;;;;;;30.33;17.48;;;;;;;0.57;85.94;102963.81;5026046;28;20035;-21
2022/01/13 03:01:34;;;;;;;31.77;16.35;;;;;;;0.54;85.86;102966.22;5026729;28;20219;-21
2022/01/13 03:04:04;;;;;;;33.22;17.55;;;;;;;0.59;85.63;102970.03;5025293;28;20132;-22
2022/01/13 03:06:38;;;;;;;28.15;17.35;;;;;;;0.58;85.69;102963.03;5025354;28;20032;-22
2022/01/13 03:09:05;;;;;;;30.70;16.63;;;;;;;0.60;85.50;102961.44;5024098;28;20032;-22
2022/01/13 03:11:34;;;;;;;32.17;17.13;;;;;;;0.59;85.47;102957.03;5024959;28;20124;-22
2022/01/13 03:14:00;;;;;;;28.92;16.52;;;;;;;0.61;85.77;102947.69;5028031;28;20017;-21
2022/01/13 03:16:28;;;;;;;30.95;16.45;;;;;;;0.61;85.20;102941.56;5030161;28;20037;-21
2022/01/13 03:18:53;;;;;;;26.30;15.77;;;;;;;0.63;85.22;102939.97;5029799;28;20095;-21
2022/01/13 03:21:19;;;;;;;29.23;16.55;;;;;;;0.62;85.32;102932.97;5029253;28;20045;-22
2022/01/13 03:23:44;;;;;;;29.45;16.73;;;;;;;0.61;85.52;102925.97;5026590;28;20382;-20
2022/01/13 03:26:10;;;;;;;27.20;15.75;;;;;;;0.63;85.44;102933.09;5025056;28;20034;-22
2022/01/13 03:28:40;;;;;;;26.73;15.63;;;;;;;0.64;85.42;102932.28;5029389;28;20080;-22
2022/01/13 03:31:07;;;;;;;28.42;15.65;;;;;;;0.63;85.43;102930.47;5026451;28;20032;-22
2022/01/13 03:33:32;;;;;;;28.35;16.13;;;;;;;0.65;85.29;102933.19;5025614;28;20145;-22
2022/01/13 03:35:59;;;;;;;30.20;15.85;;;;;;;0.64;85.16;102934.88;5026600;28;20314;-21
2022/01/13 03:38:25;;;;;;;30.50;15.60;;;;;;;0.64;85.17;102940.06;5028215;28;20017;-22
2022/01/13 03:40:50;;;;;;;28.90;16.08;;;;;;;0.65;85.16;102935.78;5026025;28;20079;-21
2022/01/13 03:43:17;;;;;;;30.60;16.73;;;;;;;0.63;85.43;102933.09;5025474;28;20582;-22
2022/01/13 03:45:42;;;;;;;27.65;16.02;;;;;;;0.66;85.16;102937.59;5026362;28;20467;-22
2022/01/13 03:48:10;;;;;;;27.92;15.90;;;;;;;0.63;85.13;102938.28;5026045;28;20056;-21
2022/01/13 03:50:36;;;;;;;30.65;16.15;;;;;;;0.62;85.21;102933.88;5028260;28;20443;-22
2022/01/13 03:53:01;;;;;;;30.17;15.45;;;;;;;0.64;85.27;102945.25;5028530;28;20028;-22
2022/01/13 03:55:36;;;;;;;29.63;16.40;;;;;;;0.66;85.52;102954.88;5027688;28;20032;-20
2022/01/13 03:58:39;;;;;;;25.08;14.75;;;;;;;0.64;85.43;102953.06;5026177;28;20029;-22
2022/01/13 04:01:46;;;;;;;31.38;15.27;;;;;;;0.64;85.18;102954.78;5027883;28;20151;-22
2022/01/13 04:04:11;;;;;;;29.90;14.48;;;;;;;0.63;85.15;102952.94;5041304;28;20029;-21
2022/01/13 04:06:39;;;;;;;27.35;15.05;;;;;;;0.65;85.31;102964.34;5027141;28;20038;-22
2022/01/13 04:09:20;;;;;;;25.85;14.95;;;;;;;0.60;85.09;102950.16;5024519;28;20029;-22
2022/01/13 04:11:45;;;;;;;27.45;14.77;;;;;;;0.66;85.28;102960.06;5026814;28;20123;-22
2022/01/13 04:14:10;;;;;;;28.05;16.30;;;;;;;0.62;85.00;102949.47;5025741;28;20552;-21
2022/01/13 04:16:37;;;;;;;27.48;15.48;;;;;;;0.61;85.46;102947.69;5028046;28;20037;-21
2022/01/13 04:19:05;;;;;;;25.50;14.27;;;;;;;0.63;85.06;102951.25;5028647;28;20029;-22
2022/01/13 04:21:39;;;;;;;27.98;15.18;;;;;;;0.62;85.18;102944.28;5027151;28;20041;-22
2022/01/13 04:24:12;;;;;;;27.45;16.02;;;;;;;0.62;85.13;102944.28;5022179;28;20029;-21
2022/01/13 04:38:28;;;;;;;28.90;16.73;;;;;;;0.62;85.40;102946.88;5081710;27;20772;-25
2022/01/13 04:40:59;;;;;;;28.67;16.27;;;;;;;0.63;85.02;102940.88;5071675;23;20500;-22
2022/01/13 04:43:26;;;;;;;28.13;15.30;;;;;;;0.63;85.12;102935.69;5027698;28;20037;-20
2022/01/13 04:45:52;;;;;;;28.73;15.20;;;;;;;0.63;85.22;102935.69;5022134;28;20029;-23
2022/01/13 04:48:20;;;;;;;25.42;15.07;;;;;;;0.59;84.97;102920.69;5026348;28;20022;-22
2022/01/13 04:50:46;;;;;;;21.67;13.55;;;;;;;0.62;84.69;102922.59;5023162;28;20389;-20
2022/01/13 04:53:14;;;;;;;27.20;14.90;;;;;;;0.62;84.68;102931.28;5020630;28;20488;-19
2022/01/13 04:55:48;;;;;;;26.30;15.00;;;;;;;0.56;85.09;102914.41;5016612;28;20537;-20
2022/01/13 04:58:17;;;;;;;28.90;15.52;;;;;;;0.61;85.24;102920.78;5020943;28;20873;-18
2022/01/13 05:00:43;;;;;;;28.48;15.68;;;;;;;0.60;85.10;102919.88;5022283;28;20026;-19
2022/01/13 05:03:08;;;;;;;33.08;16.60;;;;;;;0.58;85.18;102913.69;5026207;28;20029;-18
2022/01/13 05:05:33;;;;;;;28.25;16.70;;;;;;;0.59;85.14;102917.16;5024674;28;20029;-22
2022/01/13 05:07:59;;;;;;;30.52;17.05;;;;;;;0.56;84.99;102922.19;5023862;28;20075;-18
2022/01/13 05:10:24;;;;;;;28.33;16.73;;;;;;;0.59;85.47;102922.38;5020165;28;20473;-18
2022/01/13 05:12:54;;;;;;;30.27;16.02;;;;;;;0.58;85.41;102929.28;5020781;28;20509;-21
2022/01/13 05:15:26;;;;;;;34.95;17.65;;;;;;;0.56;85.40;102923.06;5021814;28;20017;-18
2022/01/13 05:20:37;;;;;;;35.15;17.27;;;;;;;0.55;85.72;102923.88;5025777;28;19940;-21
2022/01/13 05:23:03;;;;;;;38.22;19.38;;;;;;;0.51;86.01;102914.06;5023625;28;20034;-18
2022/01/13 05:25:28;;;;;;;33.90;17.27;;;;;;;0.52;85.58;102915.88;5021640;28;20504;-19
2022/01/13 05:27:59;;;;;;;36.35;18.02;;;;;;;0.55;85.86;102923.88;5024886;28;20037;-18
2022/01/13 05:30:25;;;;;;;;;;;;;;;0.54;85.46;102929.88;5023050;28;20038;-19
2022/01/13 05:32:54;;;;;;;28.58;16.05;;;;;;;0.52;85.32;102931.44;5017401;28;20059;-18
2022/01/13 05:35:19;;;;;;;35.53;17.52;;;;;;;0.52;85.39;102915.88;5021496;28;20046;-18
2022/01/13 05:37:45;;;;;;;32.25;17.35;;;;;;;0.52;85.80;102921.06;5014846;28;20670;-20
2022/01/13 05:40:13;;;;;;;33.58;18.73;;;;;;;0.53;85.96;102934.94;5011262;28;20033;-22
2022/01/13 05:42:42;;;;;;;34.50;17.85;;;;;;;0.50;86.07;102931.34;5008647;28;20064;-18
2022/01/13 05:45:16;;;;;;;34.30;19.15;;;;;;;0.50;85.94;102920.94;5009633;28;20030;-19
2022/01/13 05:47:42;;;;;;;36.25;19.33;;;;;;;0.53;85.89;102917.66;5010752;28;20034;-18
2022/01/13 05:50:09;;;;;;;34.70;18.48;;;;;;;0.49;85.64;102916.56;5006806;28;20481;-21
2022/01/13 05:52:35;;;;;;;34.33;18.65;;;;;;;0.51;85.63;102914.94;5008508;28;20038;-18
2022/01/13 05:55:07;;;;;;;36.92;19.33;;;;;;;0.53;85.76;102917.66;5012969;28;20136;-19
2022/01/13 05:57:32;;;;;;;36.30;19.05;;;;;;;0.51;85.55;102908.88;5009391;28;20029;-20
2022/01/13 05:59:58;;;;;;;31.48;17.67;;;;;;;0.51;85.96;102909.75;5012606;28;20033;-20
2022/01/13 06:02:23;;;;;;;35.50;18.27;;;;;;;0.52;85.49;102913.25;5011496;28;20447;-20
2022/01/13 06:04:49;;;;;;;37.03;18.60;;;;;;;0.53;85.66;102912.47;5011853;28;20037;-18
2022/01/13 06:07:14;;;;;;;31.88;17.42;;;;;;;0.52;85.68;102915.88;5010158;28;20034;-19
2022/01/13 06:09:40;;;;;;;28.20;15.88;;;;;;;0.52;85.80;102908.06;5008140;28;20145;-18
2022/01/13 06:12:08;;;;;;;30.20;16.55;;;;;;;0.50;85.94;102907.09;5010993;28;20029;-18
2022/01/13 06:14:34;;;;;;;33.75;17.60;;;;;;;0.51;85.44;102914.06;5011499;28;20055;-19
2022/01/13 06:16:59;;;;;;;31.58;17.30;;;;;;;0.50;85.89;102912.28;5011468;28;20477;-18
2022/01/13 06:19:24;;;;;;;30.17;16.85;;;;;;;0.51;85.44;102919.25;5010064;28;20047;-22
2022/01/13 06:21:52;;;;;;;37.45;18.08;;;;;;;0.51;85.80;102924.47;5010688;28;20034;-22
2022/01/13 06:24:18;;;;;;;27.30;15.90;;;;;;;0.50;85.90;102925.25;5009427;28;20033;-18
2022/01/13 06:26:43;;;;;;;29.85;18.02;;;;;;;0.48;85.93;102916.44;5010037;28;20409;-19
2022/01/13 06:29:09;;;;;;;33.15;17.17;;;;;;;0.49;85.25;102926.03;5012245;28;20189;-20
2022/01/13 06:31:34;;;;;;;31.08;17.13;;;;;;;0.52;85.52;102926.25;5009125;28;20523;-18
2022/01/13 06:33:59;;;;;;;34.60;17.90;;;;;;;0.51;85.55;102934.84;5010645;28;20029;-19
2022/01/13 06:36:25;;;;;;;25.58;16.27;;;;;;;0.49;85.21;102929.53;5009489;28;20026;-18
2022/01/13 06:38:50;;;;;;;33.22;17.50;;;;;;;0.50;85.46;102938.25;5011049;28;20495;-19
2022/01/13 06:41:17;;;;;;;28.10;15.98;;;;;;;0.45;85.66;102924.03;5008593;28;20029;-18
2022/01/13 06:43:43;;;;;;;31.73;16.80;;;;;;;0.48;85.48;102929.44;5009219;28;20038;-18
2022/01/13 06:46:08;;;;;;;30.55;17.33;;;;;;;0.50;85.32;102933.06;5006161;28;20069;-18
2022/01/13 06:48:33;;;;;;;34.95;18.50;;;;;;;0.48;85.30;102925.16;4992334;28;20617;-18
2022/01/13 06:50:59;;;;;;;26.52;15.70;;;;;;;0.45;85.24;102918.84;5005591;28;20037;-18
2022/01/13 06:53:25;;;;;;;32.63;17.67;;;;;;;0.46;85.43;102921.53;5011448;28;20038;-20
2022/01/13 06:55:51;;;;;;;30.70;18.20;;;;;;;0.48;85.24;102921.66;5010287;28;20121;-18
2022/01/13 06:58:16;;;;;;;28.70;17.92;;;;;;;0.48;85.43;102925.16;5012986;28;20022;-18
2022/01/13 07:00:41;;;;;;;32.08;17.85;;;;;;;0.48;85.46;102929.44;5009006;28;20017;-19
2022/01/13 07:03:07;;;;;;;31.40;17.40;;;;;;;0.46;85.67;102925.81;5009194;28;20037;-18
2022/01/13 07:05:32;;;;;;;28.38;16.85;;;;;;;0.48;85.24;102934.63;5010716;28;20092;-20
2022/01/13 07:07:57;;;;;;;30.60;18.52;;;;;;;0.45;85.51;102926.63;5009264;28;20030;-18
2022/01/13 07:10:23;;;;;;;32.15;17.95;;;;;;;0.46;85.46;102933.59;5015765;28;20045;-22
2022/01/13 07:12:48;;;;;;;31.67;17.58;;;;;;;0.43;84.95;102946.41;5011689;28;20097;-18
2022/01/13 07:15:14;;;;;;;33.50;18.50;;;;;;;0.44;85.53;102949.09;5014310;28;20547;-20
2022/01/13 07:17:40;;;;;;;34.63;18.23;;;;;;;0.45;85.33;102955.19;5009452;28;20026;-19
2022/01/13 07:20:06;;;;;;;26.75;16.63;;;;;;;0.43;85.32;102967.19;5014180;28;20036;-18
2022/01/13 07:22:31;;;;;;;32.10;18.65;;;;;;;0.43;85.84;102975.84;5009277;28;20022;-20
2022/01/13 07:24:56;;;;;;;28.88;16.38;;;;;;;0.41;85.53;102968.75;5012379;28;20060;-19
2022/01/13 07:27:22;;;;;;;31.15;17.50;;;;;;;0.43;85.31;102983.63;5007378;28;20056;-18
2022/01/13 07:29:48;;;;;;;29.45;15.63;;;;;;;0.43;85.45;102988.81;5011147;28;20061;-20
2022/01/13 07:32:15;;;;;;;28.15;16.20;;;;;;;0.43;85.57;103006.13;5008858;28;20470;-20
2022/01/13 07:34:40;;;;;;;30.27;16.77;;;;;;;0.43;85.31;102995.75;5010703;28;20037;-18
2022/01/13 07:37:05;;;;;;;28.30;16.38;;;;;;;0.43;85.20;102994.03;5007601;28;20033;-18
2022/01/13 07:39:31;;;;;;;29.45;17.25;;;;;;;0.43;85.68;102996.63;5013846;28;20393;-20
2022/01/13 07:41:57;;;;;;;28.25;16.85;;;;;;;0.44;85.21;103002.72;5010416;28;20408;-21
2022/01/13 07:44:22;;;;;;;29.40;16.65;;;;;;;0.41;85.90;102999.91;5008687;28;20101;-21
2022/01/13 07:46:48;;;;;;;30.70;17.60;;;;;;;0.43;85.22;103013.91;5010326;28;20025;-18
2022/01/13 07:49:13;;;;;;;32.70;17.13;;;;;;;0.44;85.51;103005.31;5009439;28;20061;-19
2022/01/13 07:51:38;;;;;;;29.65;17.52;;;;;;;0.42;85.34;103000.00;5007970;28;20497;-20
2022/01/13 07:54:13;;;;;;;29.88;17.38;;;;;;;0.45;85.92;103001.91;5009397;28;20384;-18
2022/01/13 07:56:38;;;;;;;30.60;16.83;;;;;;;0.44;85.45;102979.34;5008243;28;20026;-18
2022/01/13 07:59:04;;;;;;;31.77;16.75;;;;;;;0.44;85.72;102985.47;5007712;28;20025;-20
2022/01/13 08:01:29;;;;;;;28.00;16.25;;;;;;;0.44;85.79;102979.34;5010162;28;20112;-20
2022/01/13 08:03:54;;;;;;;25.48;15.75;;;;;;;0.46;85.81;102986.44;5009012;28;20037;-19
2022/01/13 08:06:19;;;;;;;26.02;16.40;;;;;;;0.48;85.60;102983.97;5007552;28;20033;-18
2022/01/13 08:08:45;;;;;;;30.60;17.90;;;;;;;0.48;85.14;102981.38;5007275;28;20432;-18
2022/01/13 08:11:10;;;;;;;26.70;16.65;;;;;;;0.49;85.51;102980.56;5009498;28;20034;-18
2022/01/13 08:13:36;;;;;;;30.35;16.90;;;;;;;0.51;85.20;102985.06;5008269;28;20040;-19
2022/01/13 08:16:08;;;;;;;28.85;16.33;;;;;;;0.53;85.60;102974.78;5007518;28;20091;-18
2022/01/13 08:21:19;;;;;;;26.77;16.30;;;;;;;0.57;85.98;102976.81;5004697;28;20029;-19
2022/01/13 08:23:44;;;;;;;27.50;15.98;;;;;;;0.58;85.42;102983.81;5007092;28;20034;-18
2022/01/13 08:26:12;;;;;;;30.63;15.48;;;;;;;0.62;86.08;102995.31;5006550;28;20560;-19
2022/01/13 08:28:40;;;;;;;31.10;17.02;;;;;;;0.62;85.52;102974.53;5008012;28;20032;-18
2022/01/13 08:31:06;;;;;;;29.63;17.38;;;;;;;0.66;85.53;102965.28;5005082;28;20033;-18
2022/01/13 08:33:40;;;;;;;25.85;16.02;;;;;;;0.67;85.53;102956.69;5005256;28;20041;-18
2022/01/13 08:36:05;;;;;;;28.35;16.98;;;;;;;0.70;85.66;102967.28;5005761;28;20033;-18
2022/01/13 08:38:31;;;;;;;28.33;16.58;;;;;;;0.72;86.22;102976.97;5004788;28;20022;-18
2022/01/13 08:40:57;;;;;;;27.17;16.67;;;;;;;0.76;85.91;102978.06;5005404;28;20121;-18
2022/01/13 08:43:24;;;;;;;28.40;16.95;;;;;;;0.81;85.95;102978.41;5006694;28;20034;-17
2022/01/13 08:45:49;;;;;;;26.35;17.35;;;;;;;0.80;85.74;102959.28;5005387;28;20127;-19
2022/01/13 08:48:16;;;;;;;34.40;17.95;;;;;;;0.83;85.98;102956.91;5012818;28;20022;-19
2022/01/13 08:50:41;;;;;;;35.20;19.15;;;;;;;0.89;86.12;102967.75;5005392;28;20036;-18
2022/01/13 08:53:07;;;;;;;29.05;16.88;;;;;;;0.92;86.10;102976.53;5010948;28;20030;-18
2022/01/13 08:55:33;;;;;;;29.80;17.13;;;;;;;0.92;85.79;102993.03;5010709;28;20061;-18
2022/01/13 08:57:58;;;;;;;33.13;18.88;;;;;;;0.98;86.24;102987.34;5017851;28;20037;-18
2022/01/13 09:00:24;;;;;;;32.65;19.42;;;;;;;0.99;85.89;102982.25;5009629;28;20045;-18
2022/01/13 09:02:50;;;;;;;31.92;19.33;;;;;;;1.03;85.85;102970.34;5005233;28;20026;-19
2022/01/13 09:05:17;;;;;;;32.22;18.58;;;;;;;1.05;86.11;102979.16;5010357;28;20038;-21
2022/01/13 09:07:44;;;;;;;31.02;16.70;;;;;;;1.09;85.98;102982.88;5011838;28;20220;-18
2022/01/13 09:10:12;;;;;;;36.42;20.73;;;;;;;1.11;86.02;102974.41;5008964;28;20033;-18
2022/01/13 09:12:37;;;;;;;33.65;19.40;;;;;;;1.13;85.76;102974.47;5009232;28;20033;-18
2022/01/13 09:15:15;;;;;;;39.50;20.30;;;;;;;1.14;85.87;102966.78;5010927;28;20075;-18
2022/01/13 09:17:43;;;;;;;37.00;21.50;;;;;;;1.21;85.82;102986.31;5013948;28;20372;-17
2022/01/13 09:20:10;;;;;;;34.00;20.02;;;;;;;1.25;86.02;102990.00;5014293;28;20041;-19
2022/01/13 09:22:37;;;;;;;31.83;19.67;;;;;;;1.23;86.08;102968.22;5010166;28;20526;-17
2022/01/13 09:25:06;;;;;;;32.75;19.08;;;;;;;1.30;86.48;102970.41;5012833;28;20500;-17
2022/01/13 09:27:33;;;;;;;37.13;19.85;;;;;;;1.33;86.41;102983.59;5010893;28;20034;-17
2022/01/13 09:29:59;;;;;;;35.05;19.38;;;;;;;1.37;86.24;102989.94;5018711;28;20022;-19
2022/01/13 09:32:24;;;;;;;35.00;20.48;;;;;;;1.38;86.74;102990.03;5019582;28;20024;-17
2022/01/13 09:34:50;;;;;;;34.88;19.67;;;;;;;1.45;86.90;102993.03;5011942;28;20235;-19
2022/01/13 09:37:16;;;;;;;35.00;18.88;;;;;;;1.47;86.58;102996.63;5015446;28;20025;-18
2022/01/13 09:39:42;;;;;;;35.42;20.02;;;;;;;1.49;86.96;102987.22;5001869;28;20076;-17
2022/01/13 09:42:09;;;;;;;36.28;19.40;;;;;;;1.54;87.22;102998.84;5007186;28;20034;-17
2022/01/13 09:44:34;;;;;;;32.88;19.40;;;;;;;1.57;86.72;102993.81;5011937;28;20116;-18
2022/01/13 09:46:59;;;;;;;36.45;19.63;;;;;;;1.60;86.67;102995.75;5012182;28;20112;-18
2022/01/13 09:49:25;;;;;;;35.10;20.45;;;;;;;1.63;86.92;103006.31;5017966;28;20025;-18
2022/01/13 09:51:51;;;;;;;32.58;18.52;;;;;;;1.67;86.79;103005.75;5007805;28;20097;-18
2022/01/13 09:54:16;;;;;;;33.92;19.48;;;;;;;1.65;86.83;103003.06;5013286;28;20028;-17
2022/01/13 09:56:44;;;;;;;34.17;19.70;;;;;;;1.70;86.94;103000.72;5011080;28;20037;-18
2022/01/13 09:59:09;;;;;;;34.13;20.02;;;;;;;1.73;87.10;102987.94;5011969;28;20251;-17
2022/01/13 10:01:35;;;;;;;34.70;19.75;;;;;;;1.78;87.01;102990.84;5009082;28;20029;-21
2022/01/13 10:04:00;;;;;;;33.15;21.05;;;;;;;1.79;86.93;102984.81;5016127;28;20464;-18
2022/01/13 10:06:25;;;;;;;36.08;19.55;;;;;;;1.85;87.10;102984.31;5018354;28;20075;-17
2022/01/13 10:08:53;;;;;;;38.47;21.30;;;;;;;1.88;87.27;102993.25;5014039;28;20030;-18
2022/01/13 10:11:53;;;;;;;37.88;19.17;;;;;;;1.92;87.21;102987.41;5015761;28;20017;-18
2022/01/13 10:16:53;;;;;;;40.78;20.73;;;;;;;2.01;87.26;102986.19;5011344;28;20357;-20
2022/01/13 10:19:26;;;;;;;42.78;22.08;;;;;;;2.03;87.36;102984.56;5010553;28;20434;-19
2022/01/13 10:21:59;;;;;;;37.55;19.67;;;;;;;2.07;87.54;102975.28;5012294;28;20115;-19
2022/01/13 10:24:27;;;;;;;37.63;20.92;;;;;;;2.09;87.34;102969.34;5008445;28;20037;-17
2022/01/13 10:27:08;;;;;;;38.58;21.13;;;;;;;2.12;86.92;102964.34;5011970;28;20026;-19
2022/01/13 10:29:50;;;;;;;40.70;22.08;;;;;;;2.17;86.98;102957.72;4998614;28;20018;-19
2022/01/13 10:32:23;;;;;;;38.50;20.48;;;;;;;2.20;87.04;102953.53;5009578;28;20047;-18
2022/01/13 10:34:51;;;;;;;37.72;21.83;;;;;;;2.21;86.95;102945.81;5010751;28;20143;-18
2022/01/13 10:37:19;;;;;;;34.03;20.25;;;;;;;2.25;86.95;102947.78;5013770;28;20429;-18
2022/01/13 10:40:06;;;;;;;36.63;21.10;;;;;;;2.30;86.40;102943.75;5010983;28;20056;-17
2022/01/13 10:45:19;;;;;;;31.15;18.35;;;;;;;2.35;86.73;102946.66;5013832;28;20062;-18
2022/01/13 10:47:51;;;;;;;34.00;19.40;;;;;;;2.41;86.55;102935.72;5013602;28;20030;-18
2022/01/13 10:50:17;;;;;;;31.60;19.52;;;;;;;2.42;86.47;102938.41;5012506;28;20401;-17
2022/01/13 10:52:42;;;;;;;36.60;21.33;;;;;;;2.42;86.51;102941.03;5016056;28;20030;-20
2022/01/13 10:55:16;;;;;;;36.83;21.02;;;;;;;2.50;86.49;102940.59;5011788;28;20131;-18
2022/01/13 10:57:43;;;;;;;36.60;21.08;;;;;;;2.51;86.73;102938.09;5008625;28;20032;-19
2022/01/13 11:00:11;;;;;;;32.00;20.13;;;;;;;2.57;86.89;102937.56;5013124;28;20036;-19
2022/01/13 11:02:36;;;;;;;31.45;18.70;;;;;;;2.58;86.44;102928.94;5009506;28;20025;-18
2022/01/13 11:05:02;;;;;;;35.80;20.90;;;;;;;2.65;86.72;102935.41;5013590;28;20032;-17
2022/01/13 11:07:29;;;;;;;31.70;21.05;;;;;;;2.69;86.46;102940.91;5012847;28;20025;-18
2022/01/13 11:10:00;;;;;;;34.92;20.50;;;;;;;2.71;86.58;102929.66;5004316;28;20029;-18
2022/01/13 11:12:37;;;;;;;;;;;;;;;2.75;86.16;102922.13;5012139;28;20447;-17
2022/01/13 11:15:08;;;;;;;35.35;20.65;;;;;;;2.78;86.57;102934.44;5005966;28;19953;-18
2022/01/13 11:17:37;;;;;;;39.55;21.15;;;;;;;2.82;86.54;102923.38;5010787;28;20099;-19
2022/01/13 11:20:11;;;;;;;36.35;20.50;;;;;;;2.85;86.63;102926.16;5005012;28;20044;-17
2022/01/13 11:22:43;;;;;;;35.08;20.55;;;;;;;2.87;86.63;102924.53;5006305;28;20081;-18
2022/01/13 11:25:14;;;;;;;38.53;21.38;;;;;;;2.89;86.61;102922.94;5009434;28;20041;-18
2022/01/13 11:27:40;;;;;;;37.28;22.13;;;;;;;2.95;86.47;102918.09;5010907;28;20088;-18
2022/01/13 11:30:09;;;;;;;35.53;20.38;;;;;;;2.99;86.47;102915.63;5012626;28;20037;-19
2022/01/13 11:32:42;;;;;;;36.83;19.85;;;;;;;3.02;85.96;102906.31;5007143;28;20026;-18
2022/01/13 11:35:09;;;;;;;32.67;20.38;;;;;;;3.05;86.22;102909.09;5010725;28;20113;-19
2022/01/13 11:37:35;;;;;;;35.30;19.85;;;;;;;3.06;85.96;102902.16;5009534;28;20523;-18
2022/01/13 11:40:01;;;;;;;33.55;20.63;;;;;;;3.10;86.09;102898.03;5007510;28;20033;-19
2022/01/13 11:42:26;;;;;;;30.60;19.70;;;;;;;3.14;85.96;102890.44;5003895;28;20108;-19
2022/01/13 11:45:13;;;;;;;31.48;19.90;;;;;;;3.18;85.85;102892.47;5014233;28;20108;-19
2022/01/13 11:47:38;;;;;;;36.22;19.25;;;;;;;3.20;85.65;102884.69;5021295;28;20589;-18
2022/01/13 11:50:30;;;;;;;31.77;18.65;;;;;;;3.24;86.06;102886.69;5009372;28;20184;-18
2022/01/13 11:52:56;;;;;;;37.90;20.90;;;;;;;3.27;85.83;102889.44;5011452;28;20025;-18
2022/01/13 11:55:41;;;;;;;30.17;18.55;;;;;;;3.30;85.66;102891.34;5010709;28;20481;-18
2022/01/13 11:58:11;;;;;;;29.52;18.00;;;;;;;3.32;85.90;102884.50;5005781;28;20033;-18
2022/01/13 12:00:38;;;;;;;31.63;19.25;;;;;;;3.34;85.66;102882.91;5006576;28;20030;-22
2022/01/13 12:03:25;;;;;;;35.05;19.55;;;;;;;3.37;85.76;102872.59;5006701;28;20124;-18